Forest, Canada
Current Conditions -  °F | °C
As of 10:00 AM on Saturday 25 Oct 2014 (Local Time) from CYZR Reporting Station
NA  
Wind Chill: 55°   Ceiling: NA
Heat Index: 55°   Visibility: NA
Dew Point: 50°   Wind: 10mph
Humidity: 82%   Direction: 220°SW
Pressure: 29.75"   Gusts: 21mph
Location:  43.1°N, 82°W
Report Text: CYZR 251400Z AUTO 22009G18KT 13/10 A2975 RMK CLD MISG WX MISG VIS MISG PCPN MISG SLP076 DENSITY ALT 700FT
Loading
Personal Weather Stations






























Interactive Weather Map
Tropical Storm Tracking
New forecast layout! Learn more

10-Day Weather Forecast

Advertisements
Track Severe Weather on mobile